Time;durP1;ratioP1;P1;durP2;ratioP2;P2;SDS_P1;SDS_P2;PMS_P1;PMS_P2;Temp;Humidity;BMP_temperature;BMP_pressure;BME280_temperature;BME280_humidity;BME280_pressure;Samples;Min_cycle;Max_cycle;Signal;HPM_P1;HPM_P2
2022/04/27 00:00:33;;;;;;;10.73;6.55;;;6.10;99.90;;;;;;5092471;28;20043;-75
2022/04/27 00:03:01;;;;;;;13.30;6.78;;;6.10;99.90;;;;;;5093282;28;20048;-75
2022/04/27 00:05:27;;;;;;;12.82;7.07;;;6.10;99.90;;;;;;5093119;28;20044;-75
2022/04/27 00:07:53;;;;;;;10.73;7.25;;;6.10;99.90;;;;;;5092554;28;20101;-75
2022/04/27 00:10:19;;;;;;;11.07;6.20;;;6.00;99.90;;;;;;5112912;28;20039;-75
2022/04/27 00:12:45;;;;;;;14.82;7.35;;;5.90;99.90;;;;;;5113494;28;20082;-75
2022/04/27 00:15:12;;;;;;;15.00;6.70;;;5.90;99.90;;;;;;5112811;28;20051;-75
2022/04/27 00:17:38;;;;;;;12.85;6.75;;;6.00;99.90;;;;;;5112962;28;20071;-75
2022/04/27 00:20:04;;;;;;;11.70;7.60;;;6.00;99.90;;;;;;5111703;28;20090;-75
2022/04/27 00:22:30;;;;;;;12.95;6.85;;;6.00;99.90;;;;;;5087452;28;20114;-75
2022/04/27 00:25:00;;;;;;;12.75;7.35;;;6.00;99.90;;;;;;5102654;28;20551;-75
2022/04/27 00:27:29;;;;;;;13.93;6.90;;;6.00;99.90;;;;;;5112482;28;20050;-75
2022/04/27 00:29:55;;;;;;;11.68;6.82;;;6.00;99.90;;;;;;5112821;28;20549;-75
2022/04/27 00:32:21;;;;;;;11.77;7.03;;;6.00;99.90;;;;;;5112589;28;20075;-75
2022/04/27 00:34:46;;;;;;;12.98;7.30;;;6.10;99.90;;;;;;5106060;28;20072;-75
2022/04/27 00:37:12;;;;;;;10.15;7.38;;;6.00;99.90;;;;;;5092784;28;20079;-75
2022/04/27 00:39:38;;;;;;;11.32;7.13;;;6.00;99.90;;;;;;5103287;28;20046;-74
2022/04/27 00:42:17;;;;;;;10.20;6.65;;;6.10;99.90;;;;;;5093219;28;20033;-75
2022/04/27 00:44:44;;;;;;;11.98;7.10;;;6.10;99.90;;;;;;5092250;28;20050;-75
2022/04/27 00:47:14;;;;;;;13.32;7.78;;;6.00;99.90;;;;;;5092603;28;20041;-75
2022/04/27 00:49:51;;;;;;;13.63;7.47;;;6.10;99.90;;;;;;5090958;28;20054;-75
2022/04/27 00:52:18;;;;;;;15.00;8.23;;;6.10;99.90;;;;;;5128573;27;20067;-75
2022/04/27 00:54:48;;;;;;;11.73;7.65;;;6.00;99.90;;;;;;5110850;28;20047;-75
2022/04/27 00:57:14;;;;;;;10.85;7.18;;;6.00;99.90;;;;;;5110788;28;20496;-75
2022/04/27 00:59:40;;;;;;;16.38;8.23;;;6.00;99.90;;;;;;5111825;28;20039;-75
2022/04/27 01:02:07;;;;;;;13.52;7.15;;;6.10;99.90;;;;;;5112483;28;20090;-75
2022/04/27 01:04:34;;;;;;;11.73;7.57;;;6.10;99.90;;;;;;5091742;28;20052;-75
2022/04/27 01:07:00;;;;;;;14.23;7.38;;;6.10;99.90;;;;;;5092405;28;20424;-75
2022/04/27 01:09:27;;;;;;;11.13;7.57;;;6.10;99.90;;;;;;5104058;28;20047;-75
2022/04/27 01:11:53;;;;;;;13.70;7.05;;;6.00;99.90;;;;;;5111703;28;20048;-75
2022/04/27 01:14:19;;;;;;;12.48;6.78;;;6.00;99.90;;;;;;5112274;28;20055;-75
2022/04/27 01:16:56;;;;;;;12.20;7.18;;;5.90;99.90;;;;;;5106997;28;20429;-75
2022/04/27 01:19:23;;;;;;;13.80;6.50;;;5.90;99.90;;;;;;5091570;28;20771;-75
2022/04/27 01:21:50;;;;;;;12.63;7.18;;;5.90;99.90;;;;;;5106018;28;20155;-75
2022/04/27 01:24:20;;;;;;;10.70;7.05;;;5.90;99.90;;;;;;5102113;28;20039;-75
2022/04/27 01:26:48;;;;;;;16.77;7.60;;;5.80;99.90;;;;;;5110414;28;20048;-75
2022/04/27 01:29:17;;;;;;;10.63;7.30;;;5.80;99.90;;;;;;5111615;28;20431;-75
2022/04/27 01:31:44;;;;;;;11.15;7.28;;;5.80;99.90;;;;;;5106646;28;20135;-75
2022/04/27 01:34:10;;;;;;;13.45;7.30;;;5.90;99.90;;;;;;5112245;28;20048;-75
2022/04/27 01:36:36;;;;;;;13.68;7.15;;;6.00;99.90;;;;;;5111686;28;20043;-75
2022/04/27 01:39:01;;;;;;;12.27;7.55;;;5.90;99.90;;;;;;5127275;27;20032;-75
2022/04/27 01:41:27;;;;;;;12.23;7.10;;;5.90;99.90;;;;;;5110382;28;20515;-74
2022/04/27 01:43:53;;;;;;;9.02;6.47;;;5.90;99.90;;;;;;5111813;28;20043;-75
2022/04/27 01:46:18;;;;;;;11.80;6.80;;;5.90;99.90;;;;;;5094860;28;20054;-75
2022/04/27 01:48:44;;;;;;;13.63;7.32;;;5.90;99.90;;;;;;5090008;28;20093;-75
2022/04/27 01:51:09;;;;;;;11.20;7.25;;;6.00;99.90;;;;;;5091248;28;20407;-75
2022/04/27 01:56:19;;;;;;;12.45;7.40;;;6.00;99.90;;;;;;5091438;28;20048;-75
2022/04/27 01:58:45;;;;;;;10.20;6.95;;;6.00;99.90;;;;;;5090807;28;20047;-75
2022/04/27 02:01:11;;;;;;;11.48;7.15;;;6.10;99.90;;;;;;5089611;28;20060;-75
2022/04/27 02:03:38;;;;;;;12.23;6.75;;;6.10;99.90;;;;;;5089912;28;20044;-75
2022/04/27 02:06:03;;;;;;;13.88;7.18;;;6.10;99.90;;;;;;5089581;28;20369;-75
2022/04/27 02:08:29;;;;;;;11.05;7.30;;;6.10;99.90;;;;;;5095295;28;20085;-75
2022/04/27 02:10:55;;;;;;;11.60;6.80;;;6.00;99.90;;;;;;5113892;28;20050;-75
2022/04/27 02:13:20;;;;;;;13.65;7.18;;;6.00;99.90;;;;;;5115440;28;20039;-75
2022/04/27 02:15:46;;;;;;;9.82;6.80;;;6.00;99.90;;;;;;5115196;28;20054;-75
2022/04/27 02:18:11;;;;;;;11.35;6.55;;;6.00;99.90;;;;;;5115955;28;20039;-75
2022/04/27 02:20:37;;;;;;;13.30;7.20;;;6.10;99.90;;;;;;5114992;28;20048;-75
2022/04/27 02:23:03;;;;;;;12.82;7.45;;;6.10;99.90;;;;;;5108605;28;20043;-75
2022/04/27 02:25:29;;;;;;;9.55;6.47;;;6.10;99.90;;;;;;5112979;28;20044;-75
2022/04/27 02:27:55;;;;;;;10.73;7.05;;;6.20;99.90;;;;;;5108206;28;20082;-75
2022/04/27 02:30:21;;;;;;;13.20;7.03;;;6.10;99.90;;;;;;5115431;27;20036;-75
2022/04/27 02:32:47;;;;;;;17.13;7.65;;;6.20;99.90;;;;;;5113584;28;20512;-75
2022/04/27 02:35:14;;;;;;;12.93;7.47;;;6.20;99.90;;;;;;5113452;28;20056;-75
2022/04/27 02:37:40;;;;;;;12.50;7.45;;;6.20;99.90;;;;;;5115162;28;20039;-75
2022/04/27 02:40:08;;;;;;;11.13;7.18;;;6.20;99.90;;;;;;5115393;28;20040;-75
2022/04/27 02:42:34;;;;;;;14.32;8.20;;;6.20;99.90;;;;;;5101675;28;20134;-75
2022/04/27 02:45:00;;;;;;;13.65;7.78;;;6.20;99.90;;;;;;5115255;28;20068;-75
2022/04/27 02:47:26;;;;;;;15.43;7.63;;;6.20;99.90;;;;;;5114888;28;20040;-75
2022/04/27 02:52:36;;;;;;;13.45;7.45;;;6.20;99.90;;;;;;5114783;28;20502;-75
2022/04/27 02:55:02;;;;;;;15.95;8.27;;;6.10;99.90;;;;;;5111695;28;20064;-75
2022/04/27 02:57:28;;;;;;;12.02;7.35;;;6.10;99.90;;;;;;5094207;28;20043;-75
2022/04/27 02:59:53;;;;;;;12.55;7.93;;;6.10;99.90;;;;;;5094732;28;20044;-75
2022/04/27 03:02:19;;;;;;;13.15;8.05;;;6.10;99.90;;;;;;5094061;28;20119;-75
2022/04/27 03:04:45;;;;;;;14.75;7.70;;;6.10;99.90;;;;;;5095958;28;20051;-75
2022/04/27 03:07:11;;;;;;;14.05;8.45;;;6.10;99.90;;;;;;5114802;28;20096;-75
2022/04/27 03:09:36;;;;;;;12.10;8.00;;;6.10;99.90;;;;;;5106962;28;20450;-75
2022/04/27 03:12:02;;;;;;;13.65;7.82;;;6.10;99.90;;;;;;5113426;28;20052;-75
2022/04/27 03:14:28;;;;;;;13.85;8.43;;;6.10;99.90;;;;;;5112745;28;20051;-75
2022/04/27 03:16:54;;;;;;;11.98;7.65;;;6.20;99.90;;;;;;5113836;28;20043;-75
2022/04/27 03:19:20;;;;;;;18.30;8.68;;;6.20;99.90;;;;;;5114837;28;20130;-75
2022/04/27 03:21:46;;;;;;;13.68;8.38;;;6.20;99.90;;;;;;5113601;28;20047;-75
2022/04/27 03:24:12;;;;;;;13.40;8.75;;;6.20;99.90;;;;;;5097447;28;20046;-75
2022/04/27 03:26:38;;;;;;;14.65;9.05;;;6.30;99.90;;;;;;5109747;28;20074;-75
2022/04/27 03:29:03;;;;;;;15.18;9.07;;;6.20;99.90;;;;;;5112791;28;20079;-75
2022/04/27 03:31:30;;;;;;;14.20;8.95;;;6.30;99.90;;;;;;5112252;28;20075;-75
2022/04/27 03:33:55;;;;;;;14.02;8.48;;;6.30;99.90;;;;;;5114488;28;20071;-75
2022/04/27 03:36:21;;;;;;;16.25;8.57;;;6.30;99.90;;;;;;5114316;28;20075;-75
2022/04/27 03:38:48;;;;;;;14.75;9.38;;;6.20;99.90;;;;;;5113485;28;20442;-75
2022/04/27 03:41:19;;;;;;;16.48;8.75;;;6.30;99.90;;;;;;5112921;28;20058;-75
2022/04/27 03:43:45;;;;;;;15.40;8.82;;;6.20;99.90;;;;;;5113686;27;20505;-75
2022/04/27 03:46:10;;;;;;;19.00;9.70;;;6.30;99.90;;;;;;5113629;28;20051;-75
2022/04/27 03:48:36;;;;;;;12.65;8.32;;;6.30;99.90;;;;;;5113886;28;20040;-75
2022/04/27 03:51:02;;;;;;;12.80;8.85;;;6.30;99.90;;;;;;5111693;28;20206;-75
2022/04/27 03:53:28;;;;;;;14.07;8.50;;;6.40;99.90;;;;;;5092496;28;20102;-75
2022/04/27 03:55:54;;;;;;;17.63;8.73;;;6.40;99.90;;;;;;5091978;28;20513;-75
2022/04/27 03:58:19;;;;;;;14.75;8.32;;;6.40;99.90;;;;;;5092308;28;20373;-75
2022/04/27 04:00:45;;;;;;;14.43;8.40;;;6.40;99.90;;;;;;5092499;28;20046;-75
2022/04/27 04:03:14;;;;;;;12.90;8.32;;;6.40;99.90;;;;;;5113140;28;20070;-75
2022/04/27 04:05:39;;;;;;;14.00;7.80;;;6.40;99.90;;;;;;5107128;28;20391;-75
2022/04/27 04:08:05;;;;;;;13.45;8.18;;;6.40;99.90;;;;;;5094237;28;20039;-75
2022/04/27 04:10:31;;;;;;;13.57;8.27;;;6.40;99.90;;;;;;5111634;28;20096;-75
2022/04/27 04:12:57;;;;;;;13.73;8.30;;;6.40;99.90;;;;;;5111243;28;20040;-75
2022/04/27 04:15:22;;;;;;;13.95;8.15;;;6.30;99.90;;;;;;5129003;27;20057;-75
2022/04/27 04:17:48;;;;;;;18.75;9.00;;;6.30;99.90;;;;;;5128592;27;20044;-75
2022/04/27 04:20:17;;;;;;;12.90;9.15;;;6.40;99.90;;;;;;5102751;28;20090;-75
2022/04/27 04:22:43;;;;;;;12.65;8.13;;;6.30;99.90;;;;;;5088067;28;20044;-75
2022/04/27 04:30:39;;;;;;;12.65;8.25;;;6.40;99.90;;;;;;5113065;28;20048;-75
2022/04/27 04:33:04;;;;;;;13.85;8.32;;;6.40;99.90;;;;;;5111178;28;20169;-75
2022/04/27 04:35:30;;;;;;;13.18;8.65;;;6.40;99.90;;;;;;5091386;28;20044;-75
2022/04/27 04:37:55;;;;;;;14.57;8.57;;;6.40;99.90;;;;;;5092740;28;20093;-75
2022/04/27 04:40:21;;;;;;;12.98;8.35;;;6.40;99.90;;;;;;5109967;28;20487;-75
2022/04/27 04:42:47;;;;;;;13.18;7.97;;;6.40;99.90;;;;;;5112408;28;20042;-75
2022/04/27 04:45:13;;;;;;;14.77;8.43;;;6.50;99.90;;;;;;5112829;28;20487;-75
2022/04/27 04:47:38;;;;;;;12.70;8.70;;;6.50;99.90;;;;;;5108449;28;20480;-75
2022/04/27 04:50:05;;;;;;;14.82;8.63;;;6.50;99.90;;;;;;5092528;28;20468;-75
2022/04/27 04:52:30;;;;;;;17.08;8.88;;;6.60;99.90;;;;;;5091968;28;20101;-75
2022/04/27 04:54:56;;;;;;;14.60;8.40;;;6.60;99.90;;;;;;5090137;28;20051;-75
2022/04/27 04:57:22;;;;;;;15.02;8.80;;;6.60;99.90;;;;;;5095153;28;20464;-75
2022/04/27 04:59:47;;;;;;;15.63;8.75;;;6.60;99.90;;;;;;5112376;28;20051;-75
2022/04/27 05:02:13;;;;;;;14.10;7.80;;;6.60;99.90;;;;;;5104058;28;20043;-75
2022/04/27 05:04:38;;;;;;;14.68;8.15;;;6.60;99.90;;;;;;5107766;28;20059;-75
2022/04/27 05:07:04;;;;;;;16.30;9.43;;;6.60;99.90;;;;;;5109760;28;20142;-75
2022/04/27 05:09:29;;;;;;;14.90;8.98;;;6.70;99.90;;;;;;5111478;28;20048;-75
2022/04/27 05:11:55;;;;;;;14.98;9.10;;;6.70;99.90;;;;;;5112356;28;20046;-75
2022/04/27 05:14:21;;;;;;;17.88;9.30;;;6.70;99.90;;;;;;5112286;28;20152;-75
2022/04/27 05:16:46;;;;;;;12.70;8.27;;;6.80;99.90;;;;;;5099239;28;20055;-75
2022/04/27 05:19:12;;;;;;;12.60;8.30;;;6.80;99.90;;;;;;5090365;28;20048;-75
2022/04/27 05:21:37;;;;;;;13.57;8.40;;;6.80;99.90;;;;;;5090429;28;20399;-75
2022/04/27 05:24:03;;;;;;;14.18;8.05;;;6.80;99.90;;;;;;5085114;28;20039;-75
2022/04/27 05:26:29;;;;;;;13.55;8.60;;;6.90;99.90;;;;;;5106461;28;20531;-75
2022/04/27 05:31:54;;;;;;;15.48;8.77;;;6.90;99.90;;;;;;5100738;28;20036;-75
2022/04/27 05:34:20;;;;;;;14.20;8.52;;;7.00;99.90;;;;;;5112236;28;20085;-75
2022/04/27 05:36:46;;;;;;;13.50;7.60;;;7.00;99.90;;;;;;5111796;28;20598;-75
2022/04/27 05:39:11;;;;;;;15.70;8.30;;;7.00;99.90;;;;;;5111314;28;20126;-75
2022/04/27 05:41:37;;;;;;;13.23;8.82;;;7.10;99.90;;;;;;5110187;28;20079;-75
2022/04/27 05:44:03;;;;;;;12.07;8.57;;;7.10;99.90;;;;;;5106256;28;20143;-75
2022/04/27 05:46:28;;;;;;;11.38;7.78;;;7.20;99.90;;;;;;5090987;28;20063;-75
2022/04/27 05:48:54;;;;;;;14.07;8.35;;;7.20;99.90;;;;;;5091396;28;20044;-75
2022/04/27 05:51:20;;;;;;;13.23;7.88;;;7.30;99.90;;;;;;5090874;28;20510;-75
2022/04/27 05:53:45;;;;;;;12.90;7.93;;;7.40;99.90;;;;;;5110419;28;20060;-75
2022/04/27 05:56:12;;;;;;;14.23;8.27;;;7.40;99.90;;;;;;5110300;28;20083;-75
2022/04/27 05:58:38;;;;;;;11.30;7.60;;;7.50;99.90;;;;;;5101091;28;20056;-75
2022/04/27 06:01:04;;;;;;;11.25;7.65;;;7.60;99.90;;;;;;5090023;28;20051;-75
2022/04/27 06:03:30;;;;;;;14.68;8.10;;;7.60;99.90;;;;;;5108810;28;20127;-75
2022/04/27 06:05:56;;;;;;;11.48;7.60;;;7.70;99.90;;;;;;5110003;28;20503;-75
2022/04/27 06:08:21;;;;;;;11.88;7.25;;;7.80;99.90;;;;;;5111668;28;20039;-75
2022/04/27 06:10:47;;;;;;;13.43;7.50;;;7.90;99.90;;;;;;5111376;28;20042;-75
2022/04/27 06:13:13;;;;;;;12.40;6.72;;;7.90;99.90;;;;;;5097723;28;20059;-75
2022/04/27 06:15:39;;;;;;;11.48;7.05;;;8.00;99.90;;;;;;5089353;28;20048;-75
2022/04/27 06:18:04;;;;;;;12.30;7.55;;;8.10;99.90;;;;;;5091311;28;20126;-75
2022/04/27 06:20:30;;;;;;;9.70;6.60;;;8.10;99.90;;;;;;5090879;28;20048;-75
2022/04/27 06:22:57;;;;;;;11.50;7.00;;;8.20;99.90;;;;;;5086428;28;20036;-75
2022/04/27 06:25:25;;;;;;;12.30;6.68;;;8.30;99.90;;;;;;5096429;28;20085;-75
2022/04/27 06:27:51;;;;;;;12.82;7.32;;;8.30;99.90;;;;;;5096132;28;20096;-75
2022/04/27 06:30:17;;;;;;;10.88;6.65;;;8.40;99.90;;;;;;5111224;28;20126;-75
2022/04/27 06:32:42;;;;;;;12.55;6.85;;;8.50;99.90;;;;;;5111076;28;20048;-75
2022/04/27 06:35:12;;;;;;;12.82;6.18;;;8.50;99.90;;;;;;5110982;28;20050;-75
2022/04/27 06:37:38;;;;;;;13.50;6.05;;;8.60;99.90;;;;;;5110012;28;20047;-75
2022/04/27 06:40:05;;;;;;;16.98;6.15;;;8.70;99.90;;;;;;5108386;28;20036;-75
2022/04/27 06:42:30;;;;;;;11.38;5.72;;;8.70;99.90;;;;;;5089133;28;20046;-75
2022/04/27 06:45:00;;;;;;;13.32;5.55;;;8.80;99.90;;;;;;5089475;28;20476;-75
2022/04/27 06:47:25;;;;;;;10.25;5.97;;;8.80;99.90;;;;;;5088659;28;20052;-75
2022/04/27 06:49:51;;;;;;;12.32;5.18;;;8.90;99.90;;;;;;5092074;28;20047;-75
2022/04/27 06:52:16;;;;;;;9.05;4.68;;;9.00;99.90;;;;;;5110177;28;20047;-76
2022/04/27 06:54:42;;;;;;;9.50;4.38;;;9.00;99.90;;;;;;5102191;28;20054;-75
2022/04/27 06:57:08;;;;;;;9.60;4.53;;;9.10;99.90;;;;;;5091825;28;20040;-75
2022/04/27 06:59:33;;;;;;;8.52;4.47;;;9.20;99.90;;;;;;5111865;28;20383;-75
2022/04/27 07:01:59;;;;;;;12.68;4.00;;;9.20;99.90;;;;;;5114470;28;20043;-75
2022/04/27 07:04:26;;;;;;;8.18;3.90;;;9.30;99.90;;;;;;5115126;28;20047;-75
2022/04/27 07:06:52;;;;;;;7.40;4.63;;;9.40;99.90;;;;;;5114904;28;20043;-75
2022/04/27 07:09:18;;;;;;;8.30;4.18;;;9.40;99.90;;;;;;5113256;28;20363;-75
2022/04/27 07:11:44;;;;;;;7.93;4.50;;;9.50;99.90;;;;;;5114439;28;20047;-75
2022/04/27 07:14:11;;;;;;;9.40;4.22;;;9.50;99.90;;;;;;5114819;28;20130;-75
2022/04/27 07:16:37;;;;;;;9.93;4.40;;;9.60;99.90;;;;;;5114305;28;20427;-75
2022/04/27 07:19:02;;;;;;;9.70;3.90;;;9.60;99.90;;;;;;5114672;28;20074;-75
2022/04/27 07:21:28;;;;;;;6.38;3.53;;;9.70;99.90;;;;;;5113974;28;20043;-75
2022/04/27 07:23:54;;;;;;;6.68;3.42;;;9.70;99.90;;;;;;5092513;28;20040;-75
2022/04/27 07:26:20;;;;;;;6.28;3.05;;;9.70;99.90;;;;;;5093005;28;20046;-75
2022/04/27 07:28:45;;;;;;;6.80;3.22;;;9.80;99.90;;;;;;5104895;28;20047;-75
2022/04/27 07:31:11;;;;;;;5.20;3.60;;;9.70;99.90;;;;;;5113809;28;20146;-75
2022/04/27 07:33:36;;;;;;;5.20;2.53;;;9.80;99.90;;;;;;5114179;28;20086;-75
2022/04/27 07:36:05;;;;;;;8.23;3.47;;;9.80;99.90;;;;;;5113692;28;20079;-75
2022/04/27 07:38:31;;;;;;;8.70;2.95;;;9.80;99.90;;;;;;5093325;28;20044;-75
2022/04/27 07:40:56;;;;;;;7.00;2.60;;;9.80;99.90;;;;;;5114306;28;20047;-75
2022/04/27 07:43:22;;;;;;;5.70;2.40;;;9.90;99.90;;;;;;5112948;28;20390;-75
2022/04/27 07:45:47;;;;;;;5.32;2.25;;;9.90;99.90;;;;;;5113512;28;20036;-75
2022/04/27 07:48:13;;;;;;;5.43;2.40;;;10.00;99.90;;;;;;5093918;28;20050;-75
2022/04/27 07:50:40;;;;;;;5.10;2.05;;;10.10;99.90;;;;;;5108369;28;20044;-75
2022/04/27 07:53:06;;;;;;;5.43;2.40;;;10.10;99.90;;;;;;5091911;28;20083;-75
2022/04/27 07:55:31;;;;;;;4.70;2.20;;;10.20;99.90;;;;;;5106907;28;20480;-75
2022/04/27 07:57:57;;;;;;;7.03;2.40;;;10.20;99.90;;;;;;5113572;28;20499;-75
2022/04/27 08:00:22;;;;;;;6.75;2.05;;;10.30;99.90;;;;;;5113849;28;20043;-75
2022/04/27 08:02:48;;;;;;;3.88;1.70;;;10.30;99.90;;;;;;5113196;28;20552;-75
2022/04/27 08:05:17;;;;;;;4.40;2.00;;;10.50;99.90;;;;;;5102530;28;20044;-75
2022/04/27 08:07:44;;;;;;;6.82;2.05;;;10.60;99.90;;;;;;5091288;28;20123;-75
2022/04/27 08:10:18;;;;;;;4.93;2.50;;;10.60;99.90;;;;;;5111407;28;20923;-75
2022/04/27 08:12:49;;;;;;;7.07;2.37;;;10.70;99.90;;;;;;5111956;28;20044;-75
2022/04/27 08:15:16;;;;;;;5.30;2.58;;;10.70;99.90;;;;;;5112144;28;20366;-75
2022/04/27 08:17:56;;;;;;;4.63;2.13;;;10.70;99.90;;;;;;5113101;28;20092;-75
2022/04/27 08:23:09;;;;;;;5.90;2.30;;;10.80;99.90;;;;;;5087906;28;20044;-75
2022/04/27 08:25:36;;;;;;;4.60;1.90;;;10.90;99.90;;;;;;5092965;28;20062;-75
2022/04/27 08:28:06;;;;;;;4.82;2.08;;;11.00;99.90;;;;;;5097811;28;20084;-75
2022/04/27 08:30:32;;;;;;;4.95;1.80;;;11.10;99.90;;;;;;5112938;28;20042;-75
2022/04/27 08:33:00;;;;;;;5.22;2.05;;;11.10;99.90;;;;;;5105310;28;20479;-75
2022/04/27 08:35:27;;;;;;;6.70;2.30;;;11.20;99.80;;;;;;5092538;28;20089;-75
2022/04/27 08:37:53;;;;;;;10.05;2.78;;;11.20;99.90;;;;;;5108215;28;20097;-75
2022/04/27 08:40:19;;;;;;;4.85;1.73;;;11.20;99.90;;;;;;5109213;28;20040;-75
2022/04/27 08:42:45;;;;;;;3.80;1.80;;;11.20;98.40;;;;;;5112523;28;20036;-75
2022/04/27 08:45:11;;;;;;;6.28;1.80;;;11.30;99.50;;;;;;5112932;28;20044;-76
2022/04/27 08:47:36;;;;;;;5.80;1.98;;;11.20;97.80;;;;;;5099710;28;20462;-76
2022/04/27 08:50:16;;;;;;;5.90;2.00;;;11.20;98.30;;;;;;5091462;28;20403;-75
2022/04/27 08:52:43;;;;;;;6.60;2.17;;;11.20;97.90;;;;;;5128223;27;20039;-75
2022/04/27 08:55:10;;;;;;;6.45;2.35;;;11.30;98.90;;;;;;5111779;28;20628;-75
2022/04/27 08:57:36;;;;;;;6.45;2.38;;;11.30;99.00;;;;;;5111372;28;20065;-75
2022/04/27 09:00:05;;;;;;;6.13;1.85;;;11.30;98.40;;;;;;5112366;28;20521;-75
2022/04/27 09:02:31;;;;;;;6.35;2.00;;;11.40;99.00;;;;;;5093652;28;20111;-75
2022/04/27 09:05:18;;;;;;;8.15;2.03;;;11.40;98.80;;;;;;5091996;28;20574;-75
2022/04/27 09:07:51;;;;;;;4.00;1.60;;;11.40;98.60;;;;;;5092143;28;20059;-75
2022/04/27 09:10:27;;;;;;;5.82;1.95;;;11.50;98.60;;;;;;5111047;28;20071;-75
2022/04/27 09:12:57;;;;;;;7.85;2.53;;;11.50;98.00;;;;;;5111264;28;20062;-75
2022/04/27 09:15:25;;;;;;;5.03;2.22;;;11.40;98.50;;;;;;5103422;28;20127;-75
2022/04/27 09:20:47;;;;;;;7.22;2.10;;;11.40;98.10;;;;;;5091027;28;20491;-75
2022/04/27 09:23:23;;;;;;;6.78;2.00;;;11.40;98.60;;;;;;5086725;28;20051;-75
2022/04/27 09:26:12;;;;;;;5.90;2.90;;;11.40;98.40;;;;;;5091713;28;20036;-75
2022/04/27 09:28:38;;;;;;;8.30;1.95;;;11.50;98.30;;;;;;5100534;28;20074;-75
2022/04/27 09:31:03;;;;;;;7.35;2.10;;;11.50;98.00;;;;;;5094472;28;20067;-75
2022/04/27 09:33:34;;;;;;;6.90;1.95;;;11.50;98.30;;;;;;5112133;28;20558;-75
2022/04/27 09:36:00;;;;;;;5.15;1.98;;;11.50;98.50;;;;;;5110501;28;20039;-75
2022/04/27 09:38:29;;;;;;;4.18;1.70;;;11.60;98.20;;;;;;5110955;28;20043;-75
2022/04/27 09:40:58;;;;;;;5.88;2.08;;;11.60;98.20;;;;;;5112026;28;20039;-75
2022/04/27 09:43:46;;;;;;;4.53;1.88;;;11.70;97.70;;;;;;5104222;28;20040;-75
2022/04/27 09:46:22;;;;;;;5.57;2.10;;;11.80;98.00;;;;;;5091732;28;20399;-75
2022/04/27 09:49:11;;;;;;;3.72;1.80;;;11.80;98.20;;;;;;5091358;28;20314;-75
2022/04/27 09:51:37;;;;;;;6.63;1.70;;;11.90;97.50;;;;;;5105997;28;20058;-75
2022/04/27 09:54:03;;;;;;;6.63;2.03;;;11.90;97.90;;;;;;5110014;28;20088;-75
2022/04/27 09:56:34;;;;;;;5.70;1.85;;;11.90;97.80;;;;;;5111769;28;20117;-75
2022/04/27 09:59:04;;;;;;;5.45;1.77;;;11.90;97.30;;;;;;5106499;28;20040;-76
2022/04/27 10:01:35;;;;;;;6.30;2.15;;;11.90;97.30;;;;;;5091193;28;20032;-75
2022/04/27 10:04:04;;;;;;;5.25;1.88;;;11.80;96.80;;;;;;5091802;28;20040;-75
2022/04/27 10:06:34;;;;;;;5.15;1.52;;;11.80;97.30;;;;;;5090632;28;20047;-75
2022/04/27 10:09:01;;;;;;;6.53;2.60;;;11.80;97.80;;;;;;5099849;28;20195;-75
2022/04/27 10:11:27;;;;;;;5.22;1.80;;;11.90;97.60;;;;;;5104251;28;20028;-75
2022/04/27 10:13:54;;;;;;;5.65;1.98;;;11.90;96.80;;;;;;5091344;28;20048;-76
2022/04/27 10:16:21;;;;;;;4.38;1.65;;;11.90;97.20;;;;;;5091412;28;20047;-75
2022/04/27 10:18:47;;;;;;;8.18;2.00;;;12.00;97.30;;;;;;5090747;28;20048;-75
2022/04/27 10:21:14;;;;;;;8.30;2.35;;;12.10;97.40;;;;;;5091286;28;20098;-75
2022/04/27 10:23:46;;;;;;;8.07;2.53;;;12.10;97.40;;;;;;5086038;28;20067;-75
2022/04/27 10:26:29;;;;;;;8.48;2.22;;;12.10;97.30;;;;;;5097481;28;20054;-75
2022/04/27 10:28:56;;;;;;;7.07;2.60;;;12.20;97.40;;;;;;5093474;28;20109;-76
2022/04/27 10:31:40;;;;;;;8.38;2.35;;;12.20;97.70;;;;;;5112821;28;20089;-75
2022/04/27 10:34:21;;;;;;;10.03;2.40;;;12.30;97.40;;;;;;5113597;28;20031;-75
2022/04/27 10:36:50;;;;;;;6.38;2.15;;;12.30;97.40;;;;;;5115271;28;20105;-75
2022/04/27 10:39:18;;;;;;;4.88;1.85;;;12.40;97.30;;;;;;5111572;28;20128;-75
2022/04/27 10:42:04;;;;;;;7.05;2.08;;;12.40;97.60;;;;;;5094361;28;20131;-75
2022/04/27 10:44:51;;;;;;;6.57;2.35;;;12.40;97.20;;;;;;5111777;28;20043;-75
2022/04/27 10:47:18;;;;;;;6.25;2.70;;;12.40;97.20;;;;;;5114802;28;20054;-75
2022/04/27 10:49:48;;;;;;;9.00;2.58;;;12.40;97.60;;;;;;5113510;28;20069;-75
2022/04/27 10:52:15;;;;;;;7.63;3.00;;;12.40;97.30;;;;;;5115221;28;20039;-75
2022/04/27 10:54:41;;;;;;;11.88;2.75;;;12.40;97.60;;;;;;5099009;28;20059;-75
2022/04/27 10:57:16;;;;;;;7.00;2.42;;;12.30;97.70;;;;;;5093222;28;20484;-75
2022/04/27 10:59:59;;;;;;;10.40;2.60;;;12.30;97.60;;;;;;5094517;28;20083;-75
2022/04/27 11:02:44;;;;;;;8.38;2.33;;;12.40;97.70;;;;;;5094266;28;20044;-75
2022/04/27 11:05:13;;;;;;;9.35;3.10;;;12.40;97.80;;;;;;5094326;28;20457;-75
2022/04/27 11:07:41;;;;;;;6.95;2.50;;;12.40;97.50;;;;;;5093496;28;20079;-75
2022/04/27 11:10:09;;;;;;;7.60;2.38;;;12.30;98.00;;;;;;5112457;28;20104;-75
2022/04/27 11:12:40;;;;;;;9.07;2.53;;;12.40;98.10;;;;;;5114666;28;20404;-75
2022/04/27 11:15:08;;;;;;;8.15;2.25;;;12.40;98.10;;;;;;5114120;28;20047;-76
2022/04/27 11:17:34;;;;;;;7.75;2.20;;;12.40;98.30;;;;;;5113288;28;20051;-75
2022/04/27 11:20:02;;;;;;;9.43;2.42;;;12.30;98.40;;;;;;5114550;28;20551;-75
2022/04/27 11:22:35;;;;;;;10.40;2.40;;;12.30;98.70;;;;;;5096843;28;20090;-75
2022/04/27 11:25:00;;;;;;;10.32;2.35;;;12.40;98.80;;;;;;5105447;28;20046;-75
2022/04/27 11:27:29;;;;;;;11.90;3.13;;;12.40;98.70;;;;;;5114413;28;20044;-75
2022/04/27 11:29:55;;;;;;;10.02;2.72;;;12.30;98.90;;;;;;5113972;27;20142;-75
2022/04/27 11:32:21;;;;;;;10.57;2.60;;;12.30;98.80;;;;;;5113042;28;20043;-76
2022/04/27 11:34:48;;;;;;;10.10;3.25;;;12.30;98.90;;;;;;5113856;28;20103;-75
2022/04/27 11:37:16;;;;;;;10.02;3.03;;;12.30;99.40;;;;;;5095461;27;20425;-75
2022/04/27 11:39:43;;;;;;;9.82;3.08;;;12.30;99.40;;;;;;5105327;28;20126;-75
2022/04/27 11:42:12;;;;;;;13.73;3.17;;;12.20;99.40;;;;;;5114299;28;20047;-75
2022/04/27 11:44:41;;;;;;;9.23;3.10;;;12.20;99.60;;;;;;5112833;28;20040;-75
2022/04/27 11:47:29;;;;;;;11.07;2.90;;;12.20;99.60;;;;;;5113960;28;20039;-75
2022/04/27 11:50:03;;;;;;;9.75;3.03;;;12.20;99.80;;;;;;5106899;28;20525;-75
2022/04/27 11:52:36;;;;;;;9.55;2.95;;;12.30;99.70;;;;;;5093539;28;20043;-76
2022/04/27 11:55:08;;;;;;;8.82;3.60;;;12.20;99.60;;;;;;5092003;28;20059;-75
2022/04/27 11:57:34;;;;;;;11.32;2.67;;;12.20;99.70;;;;;;5092728;28;20100;-76
2022/04/27 12:00:02;;;;;;;11.65;2.95;;;12.10;99.80;;;;;;5093601;28;20437;-75
2022/04/27 12:02:28;;;;;;;16.10;2.58;;;12.20;99.90;;;;;;5093410;28;20434;-76
2022/04/27 12:04:58;;;;;;;12.35;2.92;;;12.10;99.80;;;;;;5092640;28;20040;-75
2022/04/27 12:07:24;;;;;;;9.80;2.63;;;12.10;99.80;;;;;;5108927;28;20051;-76
2022/04/27 12:10:14;;;;;;;11.50;2.80;;;12.10;99.90;;;;;;5108575;28;20035;-75
2022/04/27 12:12:40;;;;;;;10.18;3.65;;;12.10;99.80;;;;;;5113138;28;20088;-75
2022/04/27 12:15:11;;;;;;;15.25;3.72;;;12.10;99.90;;;;;;5113198;28;20517;-75
2022/04/27 12:17:51;;;;;;;11.13;2.65;;;12.10;99.90;;;;;;5109941;28;20565;-75
2022/04/27 12:20:34;;;;;;;15.43;4.05;;;12.10;99.90;;;;;;5091893;28;20044;-75
2022/04/27 12:23:02;;;;;;;10.15;2.80;;;12.10;99.90;;;;;;5086592;28;20036;-75
2022/04/27 12:25:35;;;;;;;16.95;2.92;;;12.20;99.70;;;;;;5107504;28;20039;-75
2022/04/27 12:28:03;;;;;;;11.23;2.83;;;12.20;99.80;;;;;;5111976;28;20118;-75
2022/04/27 12:30:30;;;;;;;10.82;2.70;;;12.20;99.70;;;;;;5113038;28;20119;-75
2022/04/27 12:32:57;;;;;;;8.85;2.75;;;12.30;99.40;;;;;;5099051;28;20047;-76
2022/04/27 12:38:17;;;;;;;8.88;2.83;;;12.50;99.60;;;;;;5113075;28;20056;-75
2022/04/27 12:40:42;;;;;;;9.27;2.65;;;12.60;99.40;;;;;;5112294;28;20047;-76
2022/04/27 12:43:08;;;;;;;8.35;2.60;;;12.60;99.00;;;;;;5112880;28;20043;-75
2022/04/27 12:45:35;;;;;;;10.27;2.50;;;12.60;99.20;;;;;;5111356;28;20039;-75
2022/04/27 12:48:02;;;;;;;9.02;2.60;;;12.70;99.20;;;;;;5092109;28;20040;-76
2022/04/27 12:50:29;;;;;;;12.10;2.42;;;12.80;99.20;;;;;;5092364;28;20040;-76
2022/04/27 12:53:09;;;;;;;10.93;2.42;;;12.80;99.10;;;;;;5092805;28;20038;-76
2022/04/27 12:55:35;;;;;;;9.43;2.20;;;12.90;98.80;;;;;;5091028;28;20123;-76
2022/04/27 12:58:01;;;;;;;9.93;2.40;;;13.00;98.70;;;;;;5092460;28;20051;-75
2022/04/27 13:00:43;;;;;;;8.77;2.78;;;13.00;98.60;;;;;;5090026;28;20048;-76
2022/04/27 13:03:10;;;;;;;7.70;2.25;;;13.20;98.10;;;;;;5092412;28;20039;-75
2022/04/27 13:05:37;;;;;;;8.50;2.65;;;13.30;98.30;;;;;;5090753;28;20484;-75
2022/04/27 13:08:06;;;;;;;12.13;3.17;;;13.40;98.10;;;;;;5092355;28;20143;-76
2022/04/27 13:13:17;;;;;;;9.23;2.63;;;13.50;97.50;;;;;;5111144;28;20074;-75